Comerio, Puerto Rico
Current Conditions -  °F | °C
As of 5:56 PM on Saturday 25 Oct 2014 (Local Time) from TJSJ Reporting Station
Scattered Clouds Scattered Clouds  
Wind Chill: 86°   Ceiling: Unl
Heat Index: 94°   Visibility: 10mi
Dew Point: 74°   Wind: 7mph
Humidity: 67%   Direction: 140°SE
Pressure: 29.84"   Gusts: NA
Location:  18.22°N, 66.22°W
Report Text: TJSJ 252156Z 14006KT 10SM FEW035 SCT150 30/23 A2984 RMK AO2 SLP105 T03000233
Loading
Personal Weather Stations






























Interactive Weather Map
Tropical Storm Tracking
New forecast layout! Learn more

10-Day Weather Forecast

Advertisements
Track Severe Weather on mobile